Terminal Aerodrome Forecast
Issued by NWS

Home | Current Version | Previous Version | Text Only | Print | Product List | Glossary On
Versions: 1 2 3 4 5 6 7 8 9 10 11 12 13 14 15 16 17 18 19 20 21 22 23 24 25 26 27 28 29 30 31 32 33 34 35 36 37 38 39 40 41 42 43 44 45 46 47 48 49
000
FTUS41 KPHI 221725
TAFPNE
TAF
KPNE 221725Z 2218/2318 VRB03KT 6SM BR OVC008
      TEMPO 2218/2219 4SM BR OVC005
     FM221900 VRB03KT P6SM BKN015
     FM222100 VRB03KT P6SM SCT035
     FM230200 00000KT P6SM BKN025
     FM230400 00000KT 6SM BR OVC010
     FM230700 VRB03KT 3/4SM BR OVC003
     FM231400 VRB03KT 6SM BR OVC008
     FM231700 13005KT P6SM BKN020=

USA.gov is the U.S. government's official web portal to all federal, state and local government web resources and services.